Maraba, Brazil
Current Conditions -  °F | °C
As of 11:00 AM on Sunday 23 Nov 2014 (Local Time) from SBMA Reporting Station
Overcast Overcast  
Wind Chill: 82°   Ceiling: 1500
Heat Index: 89°   Visibility: 6mi
Dew Point: 75°   Wind: 6mph
Humidity: 79%   Direction: 110°ESE
Pressure: 29.88"   Gusts: NA
Location:  5.34°S, 49.13°W
Report Text: SBMA 231400Z 11005KT 9999 BKN015 OVC080 28/24 Q1012
Loading
Personal Weather Stations






























Interactive Weather Map New forecast layout! Learn more

10-Day Weather Forecast

Advertisements
Track Severe Weather on mobile